createdAt,value
2019-05-09T00:01:46.730Z,83.70
2019-05-09T00:04:13.920Z,84.10
2019-05-09T00:06:47.026Z,84.80
2019-05-09T00:09:13.944Z,83.90
2019-05-09T00:11:40.256Z,84.30
2019-05-09T00:14:13.718Z,83.90
2019-05-09T00:16:46.266Z,84.50
2019-05-09T00:19:18.821Z,83.60
2019-05-09T00:21:47.065Z,84.60
2019-05-09T00:24:20.176Z,84.30
2019-05-09T00:26:46.412Z,85.20
2019-05-09T00:29:30.543Z,84.90
2019-05-09T00:32:05.621Z,84.60
2019-05-09T00:34:46.741Z,84.50
2019-05-09T00:37:13.589Z,83.50
2019-05-09T00:39:46.105Z,83.60
2019-05-09T00:42:13.709Z,85.30
2019-05-09T00:44:43.146Z,84.70
2019-05-09T00:47:18.271Z,84.40
2019-05-09T00:49:51.340Z,84.70
2019-05-09T00:52:24.595Z,85.10
2019-05-09T00:54:53.016Z,86.00
2019-05-09T00:57:41.003Z,84.60
2019-05-09T01:00:20.419Z,85.20
2019-05-09T01:02:54.207Z,84.00
2019-05-09T01:05:27.880Z,84.80
2019-05-09T01:07:54.225Z,85.70
2019-05-09T01:10:27.409Z,84.90
2019-05-09T01:13:00.629Z,84.70
2019-05-09T01:15:33.908Z,85.30
2019-05-09T01:18:06.894Z,84.60
2019-05-09T01:20:39.351Z,84.60
2019-05-09T01:23:14.201Z,84.30
2019-05-09T01:25:40.633Z,84.40
2019-05-09T01:28:07.076Z,85.00
2019-05-09T01:30:39.619Z,84.90
2019-05-09T01:33:24.061Z,84.30
2019-05-09T01:36:03.808Z,84.10
2019-05-09T01:38:30.220Z,84.30
2019-05-09T01:41:03.998Z,84.00
2019-05-09T01:43:30.534Z,85.30
2019-05-09T01:46:03.841Z,84.80
2019-05-09T01:48:30.238Z,85.50
2019-05-09T01:51:03.372Z,85.30
2019-05-09T01:53:38.149Z,84.60
2019-05-09T01:56:04.584Z,85.00
2019-05-09T01:58:38.144Z,85.20
2019-05-09T02:01:06.381Z,84.90
2019-05-09T02:03:33.666Z,84.90
2019-05-09T02:06:07.255Z,84.30
2019-05-09T02:08:34.477Z,84.20
2019-05-09T02:11:07.554Z,84.50
2019-05-09T02:13:40.732Z,84.70
2019-05-09T02:16:18.127Z,85.50
2019-05-09T02:18:53.443Z,84.40
2019-05-09T02:21:26.296Z,84.20
2019-05-09T02:23:53.724Z,85.40
2019-05-09T02:26:27.371Z,84.90
2019-05-09T02:29:03.076Z,84.60
2019-05-09T02:31:35.542Z,86.10
2019-05-09T02:34:15.346Z,85.30
2019-05-09T02:36:41.541Z,85.50
2019-05-09T02:39:15.125Z,84.70
2019-05-09T02:41:59.613Z,84.70
2019-05-09T02:44:09.574Z,86.40
2019-05-09T02:46:44.558Z,86.60
2019-05-09T02:49:10.812Z,86.90
2019-05-09T02:52:02.286Z,86.30
2019-05-09T02:54:29.862Z,85.60
2019-05-09T02:57:03.256Z,86.00
2019-05-09T02:59:38.737Z,86.60
2019-05-09T03:02:19.265Z,86.20
2019-05-09T03:04:51.829Z,85.50
2019-05-09T03:07:28.843Z,86.20
2019-05-09T03:10:02.102Z,85.50
2019-05-09T03:12:36.637Z,86.20
2019-05-09T03:15:05.023Z,85.60
2019-05-09T03:17:38.591Z,86.20
2019-05-09T03:20:18.193Z,84.90
2019-05-09T03:22:50.959Z,86.70
2019-05-09T03:25:19.102Z,86.50
2019-05-09T03:28:00.028Z,85.00
2019-05-09T03:30:29.041Z,86.20
2019-05-09T03:33:10.501Z,85.50
2019-05-09T03:35:37.871Z,86.10
2019-05-09T03:38:04.326Z,86.60
2019-05-09T03:40:37.884Z,87.40
2019-05-09T03:43:07.321Z,86.10
2019-05-09T03:45:41.927Z,86.70
2019-05-09T03:48:10.069Z,85.60
2019-05-09T03:53:35.020Z,86.70
2019-05-09T03:56:09.723Z,86.80
2019-05-09T03:58:36.069Z,86.60
2019-05-09T04:01:10.789Z,86.30
2019-05-09T04:03:37.885Z,87.00
2019-05-09T04:06:11.339Z,87.20
2019-05-09T04:08:37.756Z,86.10
2019-05-09T04:11:04.029Z,84.90
2019-05-09T04:13:41.837Z,87.20
2019-05-09T04:16:08.095Z,86.50
2019-05-09T04:18:40.970Z,85.60
2019-05-09T04:21:08.449Z,85.90
2019-05-09T04:23:41.895Z,86.30
2019-05-09T04:26:17.637Z,86.40
2019-05-09T04:28:51.064Z,86.70
2019-05-09T04:31:24.324Z,86.80
2019-05-09T04:34:04.632Z,86.70
2019-05-09T04:36:39.809Z,86.30
2019-05-09T04:39:23.171Z,86.70
2019-05-09T04:41:48.416Z,85.30
2019-05-09T04:44:19.260Z,86.60
2019-05-09T04:46:54.247Z,86.40
2019-05-09T04:49:19.206Z,86.60
2019-05-09T04:51:52.101Z,87.00
2019-05-09T04:54:18.327Z,86.90
2019-05-09T04:56:53.840Z,86.80
2019-05-09T04:59:28.318Z,86.50
2019-05-09T05:02:08.619Z,86.20
2019-05-09T05:04:34.669Z,85.40
2019-05-09T05:07:07.808Z,86.60
2019-05-09T05:09:34.365Z,86.40
2019-05-09T05:12:33.119Z,86.20
2019-05-09T05:15:08.051Z,86.90
2019-05-09T05:17:40.371Z,86.90
2019-05-09T05:20:09.125Z,86.90
2019-05-09T05:22:57.947Z,86.00
2019-05-09T05:25:29.871Z,86.40
2019-05-09T05:27:58.069Z,85.20
2019-05-09T05:30:31.272Z,86.30
2019-05-09T05:32:59.438Z,86.30
2019-05-09T05:35:37.700Z,86.60
2019-05-09T05:38:11.191Z,86.40
2019-05-09T05:40:46.433Z,86.20
2019-05-09T05:43:19.184Z,85.40
2019-05-09T05:45:47.937Z,85.50
2019-05-09T05:48:22.306Z,85.10
2019-05-09T05:50:57.661Z,85.10
2019-05-09T05:53:48.960Z,86.00
2019-05-09T05:56:22.144Z,86.60
2019-05-09T05:58:49.062Z,85.30
2019-05-09T06:01:21.670Z,85.30
2019-05-09T06:03:48.210Z,85.80
2019-05-09T06:06:20.855Z,85.10
2019-05-09T06:08:53.955Z,85.60
2019-05-09T06:11:20.360Z,86.00
2019-05-09T06:14:08.374Z,86.10
2019-05-09T06:16:41.573Z,85.90
2019-05-09T06:19:08.967Z,86.20
2019-05-09T06:21:42.469Z,84.40
2019-05-09T06:24:08.823Z,84.80
2019-05-09T06:26:41.654Z,85.20
2019-05-09T06:29:14.754Z,86.00
2019-05-09T06:31:41.124Z,86.10
2019-05-09T06:34:13.995Z,85.00
2019-05-09T06:37:09.059Z,85.10
2019-05-09T06:39:37.779Z,84.70
2019-05-09T06:42:10.819Z,84.40
2019-05-09T06:44:51.015Z,85.70
2019-05-09T06:47:28.515Z,86.10
2019-05-09T06:50:12.734Z,85.10
2019-05-09T06:52:47.853Z,84.20
2019-05-09T06:55:20.678Z,85.40
2019-05-09T06:57:53.976Z,84.80
2019-05-09T07:00:41.463Z,84.90
2019-05-09T07:03:18.352Z,85.00
2019-05-09T07:05:59.108Z,86.10
2019-05-09T07:08:27.735Z,84.30
2019-05-09T07:11:02.225Z,85.50
2019-05-09T07:13:35.383Z,84.80
2019-05-09T07:16:14.592Z,84.10
2019-05-09T07:18:48.483Z,84.30
2019-05-09T07:21:18.771Z,84.50
2019-05-09T07:23:51.621Z,84.00
2019-05-09T07:26:28.091Z,83.70
2019-05-09T07:28:54.398Z,84.20
2019-05-09T07:31:34.955Z,84.80
2019-05-09T07:34:09.162Z,84.70
2019-05-09T07:36:42.289Z,84.40
2019-05-09T07:39:17.539Z,84.10
2019-05-09T07:41:50.010Z,84.00
2019-05-09T07:44:18.275Z,85.50
2019-05-09T07:47:07.329Z,84.90
2019-05-09T07:49:39.177Z,84.40
2019-05-09T07:52:09.322Z,84.40
2019-05-09T07:54:40.360Z,85.20
2019-05-09T07:57:13.877Z,85.30
2019-05-09T07:59:47.848Z,84.50
2019-05-09T08:02:21.355Z,84.80
2019-05-09T08:04:48.879Z,84.50
2019-05-09T08:07:21.874Z,84.40
2019-05-09T08:09:48.136Z,85.30
2019-05-09T08:12:21.314Z,84.20
2019-05-09T08:15:07.331Z,84.10
2019-05-09T08:17:37.949Z,84.00
2019-05-09T08:20:13.706Z,84.90
2019-05-09T08:22:41.197Z,85.10
2019-05-09T08:25:13.790Z,85.60
2019-05-09T08:27:40.050Z,84.60
2019-05-09T08:30:13.693Z,85.60
2019-05-09T08:32:48.280Z,85.10
2019-05-09T08:35:21.223Z,85.20
2019-05-09T08:37:54.279Z,84.80
2019-05-09T08:40:28.301Z,85.00
2019-05-09T08:42:55.229Z,84.80
2019-05-09T08:45:35.109Z,83.80
2019-05-09T08:48:09.499Z,85.00
2019-05-09T08:50:38.943Z,85.10
2019-05-09T08:53:11.855Z,84.50
2019-05-09T08:55:38.453Z,84.60
2019-05-09T08:58:04.998Z,85.00
2019-05-09T09:00:39.228Z,85.10
2019-05-09T09:03:30.700Z,85.40
2019-05-09T09:05:57.908Z,84.90
2019-05-09T09:08:24.288Z,85.50
2019-05-09T09:10:57.762Z,85.40
2019-05-09T09:13:42.708Z,84.30
2019-05-09T09:16:22.744Z,84.40
2019-05-09T09:18:58.189Z,84.80
2019-05-09T09:21:23.707Z,84.60
2019-05-09T09:23:58.199Z,85.40
2019-05-09T09:29:29.419Z,84.20
2019-05-09T09:32:02.683Z,84.00
2019-05-09T09:34:30.022Z,83.90
2019-05-09T09:37:06.273Z,84.60
2019-05-09T09:39:31.442Z,84.60
2019-05-09T09:42:04.749Z,84.70
2019-05-09T09:44:31.006Z,84.70
2019-05-09T09:47:03.948Z,85.00
2019-05-09T09:49:30.319Z,85.50
2019-05-09T09:52:03.454Z,84.60
2019-05-09T09:54:29.697Z,85.60
2019-05-09T09:57:03.075Z,85.10
2019-05-09T09:59:41.013Z,84.60
2019-05-09T10:02:10.262Z,84.40
2019-05-09T10:04:43.788Z,85.60
2019-05-09T10:07:18.931Z,86.10
2019-05-09T10:09:52.279Z,86.60
2019-05-09T10:12:18.561Z,85.40
2019-05-09T10:14:53.338Z,85.50
2019-05-09T10:17:49.613Z,85.30
2019-05-09T10:20:38.314Z,85.50
2019-05-09T10:23:18.167Z,85.10
2019-05-09T10:25:38.815Z,86.30
2019-05-09T10:28:11.891Z,86.30
2019-05-09T10:30:45.261Z,87.20
2019-05-09T10:33:11.483Z,87.60
2019-05-09T10:35:39.157Z,86.60
2019-05-09T10:38:12.163Z,86.30
2019-05-09T10:40:48.292Z,86.10
2019-05-09T10:46:46.349Z,86.10
2019-05-09T10:49:04.001Z,85.50
2019-05-09T10:51:37.136Z,84.80
2019-05-09T10:54:03.651Z,84.60
2019-05-09T10:56:38.395Z,85.50
2019-05-09T10:59:04.960Z,84.60
2019-05-09T11:01:38.393Z,84.40
2019-05-09T11:04:04.934Z,85.40
2019-05-09T11:06:38.267Z,85.00
2019-05-09T11:09:08.579Z,84.90
2019-05-09T11:11:41.860Z,84.00
2019-05-09T11:14:29.648Z,83.80
2019-05-09T11:16:59.207Z,83.40
2019-05-09T11:19:31.819Z,83.80
2019-05-09T11:21:58.726Z,84.00
2019-05-09T11:24:45.419Z,83.70
2019-05-09T11:26:59.705Z,84.50
2019-05-09T11:29:32.520Z,85.60
2019-05-09T11:31:58.916Z,84.40
2019-05-09T11:34:31.819Z,84.70
2019-05-09T11:37:16.611Z,83.60
2019-05-09T11:39:58.016Z,84.50
2019-05-09T11:42:24.609Z,84.90
2019-05-09T11:44:58.167Z,84.60
2019-05-09T11:47:34.350Z,84.60
2019-05-09T11:49:52.764Z,85.00
2019-05-09T11:52:25.421Z,83.90
2019-05-09T11:54:51.775Z,84.20
2019-05-09T11:57:27.557Z,84.80
2019-05-09T11:59:52.703Z,83.80
2019-05-09T12:05:19.216Z,83.60
2019-05-09T12:07:45.309Z,84.70
2019-05-09T12:10:38.273Z,84.70
2019-05-09T12:13:11.657Z,85.10
2019-05-09T12:15:44.654Z,86.20
2019-05-09T12:18:23.994Z,86.00
2019-05-09T12:20:50.475Z,86.90
2019-05-09T12:23:19.958Z,87.40
2019-05-09T12:25:51.201Z,87.30
2019-05-09T12:28:24.277Z,87.10
2019-05-09T12:30:56.793Z,87.40
2019-05-09T12:33:23.279Z,86.80
2019-05-09T12:35:58.589Z,87.30
2019-05-09T12:38:24.125Z,87.90
2019-05-09T12:41:00.518Z,88.20
2019-05-09T12:43:25.421Z,86.80
2019-05-09T12:45:58.791Z,87.90
2019-05-09T12:48:31.816Z,88.50
2019-05-09T12:51:04.758Z,88.30
2019-05-09T12:53:31.196Z,87.60
2019-05-09T12:56:08.158Z,87.40
2019-05-09T12:59:01.504Z,86.00
2019-05-09T13:01:41.743Z,85.60
2019-05-09T13:06:59.504Z,84.80
2019-05-09T13:09:39.594Z,84.30
2019-05-09T13:12:12.772Z,84.10
2019-05-09T13:14:39.215Z,84.00
2019-05-09T13:20:17.906Z,85.80
2019-05-09T13:25:28.811Z,85.90
2019-05-09T13:28:00.916Z,84.60
2019-05-09T13:30:40.068Z,85.10
2019-05-09T13:33:13.133Z,85.60
2019-05-09T13:35:40.589Z,84.90
2019-05-09T13:38:13.515Z,84.80
2019-05-09T13:40:39.756Z,83.70
2019-05-09T13:43:12.874Z,84.80
2019-05-09T13:45:39.202Z,84.40
2019-05-09T13:48:23.922Z,84.50
2019-05-09T13:50:40.149Z,84.90
2019-05-09T13:53:07.643Z,84.60
2019-05-09T13:55:34.045Z,84.40
2019-05-09T13:58:13.979Z,84.50
2019-05-09T14:00:55.447Z,84.30
2019-05-09T14:03:08.383Z,85.00
2019-05-09T14:05:41.676Z,84.90
2019-05-09T14:08:11.431Z,84.30
2019-05-09T14:13:19.142Z,84.60
2019-05-09T14:15:51.908Z,84.70
2019-05-09T14:18:19.063Z,85.00
2019-05-09T14:20:51.982Z,85.10
2019-05-09T14:23:19.147Z,85.20
2019-05-09T14:25:52.435Z,85.40
2019-05-09T14:28:31.726Z,84.70
2019-05-09T14:31:04.778Z,84.60
2019-05-09T14:33:31.247Z,84.30
2019-05-09T14:35:59.437Z,85.30
2019-05-09T14:38:32.317Z,83.60
2019-05-09T14:41:07.671Z,83.90
2019-05-09T14:43:33.633Z,84.40
2019-05-09T14:46:08.197Z,84.60
2019-05-09T14:48:34.665Z,85.50
2019-05-09T14:51:08.157Z,83.60
2019-05-09T14:53:34.389Z,83.10
2019-05-09T14:56:08.732Z,84.60
2019-05-09T14:58:53.982Z,85.80
2019-05-09T15:01:30.395Z,86.50
2019-05-09T15:03:58.616Z,83.70
2019-05-09T15:06:25.127Z,84.10
2019-05-09T15:08:58.497Z,84.80
2019-05-09T15:11:27.938Z,84.80
2019-05-09T15:13:59.926Z,85.20
2019-05-09T15:19:23.725Z,83.70
2019-05-09T15:21:50.209Z,84.50
2019-05-09T15:24:23.412Z,83.50
2019-05-09T15:26:58.003Z,84.60
2019-05-09T15:29:50.215Z,83.70
2019-05-09T15:32:18.245Z,84.30
2019-05-09T15:34:51.808Z,84.00
2019-05-09T15:37:18.736Z,83.70
2019-05-09T15:39:45.187Z,83.60
2019-05-09T15:42:18.373Z,83.90
2019-05-09T15:44:47.529Z,84.40
2019-05-09T15:47:24.563Z,84.00
2019-05-09T15:49:59.416Z,84.00
2019-05-09T15:52:32.959Z,85.30
2019-05-09T15:54:59.420Z,84.30
2019-05-09T15:57:32.040Z,85.20
2019-05-09T16:00:19.092Z,84.60
2019-05-09T16:02:50.943Z,85.20
2019-05-09T16:08:11.291Z,84.00
2019-05-09T16:10:37.423Z,84.00
2019-05-09T16:13:10.787Z,84.10
2019-05-09T16:15:38.175Z,84.50
2019-05-09T16:18:30.296Z,84.30
2019-05-09T16:20:58.001Z,84.10
2019-05-09T16:23:31.536Z,84.60
2019-05-09T16:26:04.022Z,83.40
2019-05-09T16:28:31.630Z,83.90
2019-05-09T16:33:48.593Z,83.70
2019-05-09T16:36:21.474Z,83.70
2019-05-09T16:38:49.099Z,84.10
2019-05-09T16:41:29.303Z,84.20
2019-05-09T16:43:58.160Z,85.60
2019-05-09T16:46:23.932Z,85.60
2019-05-09T16:48:58.132Z,86.50
2019-05-09T16:51:24.609Z,85.80
2019-05-09T16:53:58.443Z,85.60
2019-05-09T16:56:25.013Z,85.40
2019-05-09T16:58:57.871Z,85.50
2019-05-09T17:01:30.770Z,84.80
2019-05-09T17:04:04.209Z,84.40
2019-05-09T17:06:30.649Z,84.20
2019-05-09T17:09:03.550Z,84.50
2019-05-09T17:11:29.919Z,85.20
2019-05-09T17:14:02.776Z,84.90
2019-05-09T17:16:29.117Z,84.20
2019-05-09T17:19:01.875Z,85.00
2019-05-09T17:21:44.193Z,85.00
2019-05-09T17:24:29.621Z,86.20
2019-05-09T17:27:08.736Z,86.10
2019-05-09T17:29:35.075Z,85.70
2019-05-09T17:32:08.307Z,85.10
2019-05-09T17:34:42.394Z,85.10
2019-05-09T17:37:08.953Z,86.50
2019-05-09T17:39:41.841Z,86.00
2019-05-09T17:42:08.112Z,86.00
2019-05-09T17:44:34.554Z,86.80
2019-05-09T17:47:08.283Z,86.60
2019-05-09T17:49:34.755Z,86.60
2019-05-09T17:52:07.722Z,86.80
2019-05-09T17:54:34.173Z,87.10
2019-05-09T17:57:07.986Z,86.80
2019-05-09T17:59:34.545Z,87.00
2019-05-09T18:02:08.708Z,85.90
2019-05-09T18:04:41.646Z,86.40
2019-05-09T18:07:14.624Z,87.10
2019-05-09T18:09:48.343Z,87.80
2019-05-09T18:12:21.923Z,86.80
2019-05-09T18:14:48.265Z,88.10
2019-05-09T18:17:21.453Z,88.40
2019-05-09T18:20:19.920Z,88.20
2019-05-09T18:22:53.213Z,88.40
2019-05-09T18:25:19.459Z,88.10
2019-05-09T18:27:59.594Z,87.80
2019-05-09T18:30:38.978Z,88.20
2019-05-09T18:33:17.012Z,88.20
2019-05-09T18:35:43.361Z,88.50
2019-05-09T18:38:20.331Z,88.60
2019-05-09T18:40:48.062Z,88.00
2019-05-09T18:43:27.805Z,88.00
2019-05-09T18:45:54.356Z,88.10
2019-05-09T18:48:28.139Z,88.00
2019-05-09T18:50:54.665Z,87.80
2019-05-09T18:53:27.650Z,88.20
2019-05-09T18:55:53.907Z,88.50
2019-05-09T18:58:26.719Z,88.40
2019-05-09T19:00:59.640Z,88.20
2019-05-09T19:03:26.233Z,88.00
2019-05-09T19:05:58.663Z,88.30
2019-05-09T19:08:24.885Z,86.90
2019-05-09T19:10:57.894Z,87.90
2019-05-09T19:13:24.121Z,88.10
2019-05-09T19:15:52.284Z,87.80
2019-05-09T19:18:33.378Z,87.00
2019-05-09T19:21:08.597Z,87.70
2019-05-09T19:23:34.942Z,87.20
2019-05-09T19:26:10.275Z,86.60
2019-05-09T19:28:43.462Z,87.50
2019-05-09T19:31:09.808Z,87.60
2019-05-09T19:33:45.703Z,88.20
2019-05-09T19:36:12.175Z,87.10
2019-05-09T19:38:45.038Z,87.80
2019-05-09T19:41:11.276Z,87.80
2019-05-09T19:43:50.346Z,88.10
2019-05-09T19:46:16.681Z,87.60
2019-05-09T19:48:49.429Z,87.50
2019-05-09T19:51:22.508Z,86.90
2019-05-09T19:53:54.856Z,88.10
2019-05-09T19:56:21.204Z,87.70
2019-05-09T19:58:54.155Z,87.10
2019-05-09T20:01:27.291Z,87.50
2019-05-09T20:03:59.859Z,87.10
2019-05-09T20:07:13.252Z,87.50
2019-05-09T20:09:54.687Z,88.30
2019-05-09T20:12:22.802Z,88.40
2019-05-09T20:14:57.099Z,88.40
2019-05-09T20:17:23.441Z,88.50
2019-05-09T20:19:56.706Z,88.40
2019-05-09T20:22:30.084Z,88.70
2019-05-09T20:25:03.609Z,88.30
2019-05-09T20:27:36.872Z,87.80
2019-05-09T20:30:12.053Z,88.10
2019-05-09T20:32:45.123Z,87.80
2019-05-09T20:35:18.559Z,88.50
2019-05-09T20:37:51.760Z,88.70
2019-05-09T20:40:18.249Z,88.40
2019-05-09T20:42:51.213Z,88.30
2019-05-09T20:45:17.676Z,88.20
2019-05-09T20:47:50.674Z,88.40
2019-05-09T20:50:17.166Z,88.40
2019-05-09T20:52:43.632Z,87.10
2019-05-09T20:55:23.123Z,88.30
2019-05-09T20:57:51.959Z,88.40
2019-05-09T21:00:24.459Z,88.40
2019-05-09T21:02:50.816Z,88.60
2019-05-09T21:05:23.639Z,88.30
2019-05-09T21:07:57.024Z,88.50
2019-05-09T21:10:37.036Z,88.90
2019-05-09T21:13:04.603Z,88.90
2019-05-09T21:15:37.318Z,88.30
2019-05-09T21:18:10.607Z,88.90
2019-05-09T21:20:36.841Z,88.70
2019-05-09T21:23:23.887Z,89.00
2019-05-09T21:25:38.014Z,88.60
2019-05-09T21:28:10.801Z,88.50
2019-05-09T21:30:37.263Z,87.90
2019-05-09T21:33:10.910Z,87.90
2019-05-09T21:35:37.370Z,86.00
2019-05-09T21:38:10.059Z,85.70
2019-05-09T21:40:43.198Z,87.10
2019-05-09T21:43:09.530Z,86.50
2019-05-09T21:45:48.782Z,86.50
2019-05-09T21:48:15.121Z,88.00
2019-05-09T21:53:39.867Z,87.70
2019-05-09T21:56:01.631Z,88.10
2019-05-09T21:58:28.005Z,88.10
2019-05-09T22:01:03.547Z,88.50
2019-05-09T22:03:29.902Z,88.30
2019-05-09T22:06:03.461Z,88.90
2019-05-09T22:08:36.819Z,88.90
2019-05-09T22:11:16.121Z,88.80
2019-05-09T22:13:42.462Z,88.90
2019-05-09T22:16:14.965Z,89.20
2019-05-09T22:19:23.545Z,89.30
2019-05-09T22:21:56.659Z,89.20
2019-05-09T22:24:29.540Z,88.90
2019-05-09T22:27:02.776Z,89.20
2019-05-09T22:29:29.057Z,89.30
2019-05-09T22:31:55.403Z,89.10
2019-05-09T22:34:27.923Z,88.60
2019-05-09T22:36:54.304Z,88.50
2019-05-09T22:39:27.276Z,88.10
2019-05-09T22:42:00.717Z,88.80
2019-05-09T22:44:27.073Z,88.40
2019-05-09T22:49:44.637Z,89.00
2019-05-09T22:52:17.795Z,89.40
2019-05-09T22:54:44.235Z,89.30
2019-05-09T22:57:17.048Z,90.00
2019-05-09T22:59:50.284Z,88.70
2019-05-09T23:02:23.608Z,88.60
2019-05-09T23:04:56.483Z,88.70
2019-05-09T23:07:22.937Z,89.10
2019-05-09T23:09:55.790Z,88.90
2019-05-09T23:12:34.956Z,89.10
2019-05-09T23:15:08.145Z,89.10
2019-05-09T23:17:34.929Z,89.10
2019-05-09T23:20:24.929Z,88.90
2019-05-09T23:22:51.269Z,89.00
2019-05-09T23:25:23.887Z,90.10
2019-05-09T23:27:50.178Z,89.50
2019-05-09T23:30:23.291Z,89.50
2019-05-09T23:32:56.301Z,89.50
2019-05-09T23:35:22.747Z,89.50
2019-05-09T23:37:55.511Z,89.50
2019-05-09T23:40:21.872Z,89.40
2019-05-09T23:42:54.832Z,88.90
2019-05-09T23:45:21.081Z,89.10
2019-05-09T23:48:00.613Z,89.40
2019-05-09T23:50:56.006Z,89.30
2019-05-09T23:53:37.914Z,89.50
2019-05-09T23:56:29.302Z,89.60
